Time;durP1;ratioP1;P1;durP2;ratioP2;P2;SDS_P1;SDS_P2;PMS_P1;PMS_P2;Temp;Humidity;BMP_temperature;BMP_pressure;BME280_temperature;BME280_humidity;BME280_pressure;Samples;Min_cycle;Max_cycle;Signal;HPM_P1;HPM_P2
2021/04/25 00:01:09;;;;;;;11.17;6.53;;;;;;;-1.55;83.83;93468.03;1820218;78;21141;-76
2021/04/25 00:03:37;;;;;;;11.97;6.33;;;;;;;-1.51;83.92;93471.08;1839163;77;21074;-75
2021/04/25 00:06:05;;;;;;;11.50;6.67;;;;;;;-1.49;83.79;93467.56;1840108;77;21161;-76
2021/04/25 00:08:34;;;;;;;9.93;5.63;;;;;;;-1.51;83.74;93470.30;1847917;77;21153;-72
2021/04/25 00:11:02;;;;;;;7.70;4.97;;;;;;;-1.51;84.04;93464.97;1851592;77;21728;-76
2021/04/25 00:13:33;;;;;;;7.47;4.93;;;;;;;-1.47;84.14;93462.70;1844516;77;21058;-75
2021/04/25 00:16:01;;;;;;;7.60;5.73;;;;;;;-1.44;83.95;93455.93;1828915;77;21474;-77
2021/04/25 00:18:28;;;;;;;5.92;4.28;;;;;;;-1.44;83.78;93457.27;1861489;76;21110;-76
2021/04/25 00:20:56;;;;;;;7.97;4.22;;;;;;;-1.43;83.80;93459.38;1860702;76;21137;-76
2021/04/25 00:23:27;;;;;;;5.80;3.37;;;;;;;-1.41;83.89;93450.52;1840511;77;22107;-76
2021/04/25 00:25:54;;;;;;;5.58;3.67;;;;;;;-1.38;84.04;93447.22;1843456;77;21062;-76
2021/04/25 00:28:22;;;;;;;8.45;5.05;;;;;;;-1.34;84.01;93442.25;1838341;78;21046;-76
2021/04/25 00:30:49;;;;;;;7.37;4.03;;;;;;;-1.32;83.83;93438.70;1838725;77;21047;-77
2021/04/25 00:33:18;;;;;;;4.73;3.60;;;;;;;-1.32;83.71;93437.92;1829937;78;21137;-76
2021/04/25 00:35:46;;;;;;;7.08;5.00;;;;;;;-1.32;83.66;93441.92;1842197;76;21913;-77
2021/04/25 00:38:13;;;;;;;5.00;3.30;;;;;;;-1.31;83.69;93439.50;1872166;75;21019;-75
2021/04/25 00:40:41;;;;;;;9.93;4.83;;;;;;;-1.31;83.65;93436.28;1839366;75;21091;-76
2021/04/25 00:43:09;;;;;;;7.17;4.30;;;;;;;-1.32;83.65;93425.36;1842739;77;21094;-76
2021/04/25 00:45:37;;;;;;;7.00;4.07;;;;;;;-1.32;83.79;93421.91;1844619;76;21125;-76
2021/04/25 00:48:05;;;;;;;8.73;3.47;;;;;;;-1.33;83.71;93423.80;1830802;78;21165;-76
2021/04/25 00:50:33;;;;;;;7.28;3.45;;;;;;;-1.37;83.88;93420.77;1825061;78;21062;-77
2021/04/25 00:53:02;;;;;;;4.03;3.20;;;;;;;-1.36;84.04;93423.10;1837750;78;21026;-75
2021/04/25 00:55:30;;;;;;;5.45;4.42;;;;;;;-1.36;84.05;93424.98;1873669;76;21035;-75
2021/04/25 00:57:58;;;;;;;6.67;4.90;;;;;;;-1.37;83.99;93420.21;1852093;76;21149;-77
2021/04/25 01:00:27;;;;;;;16.03;8.93;;;;;;;-1.35;84.07;93417.24;1843363;77;21415;-76
2021/04/25 01:02:58;;;;;;;15.87;9.77;;;;;;;-1.35;83.89;93418.58;1827492;77;21566;-76
2021/04/25 01:05:26;;;;;;;21.67;11.27;;;;;;;-1.37;83.64;93415.43;1810244;77;21128;-75
2021/04/25 01:07:54;;;;;;;18.53;10.67;;;;;;;-1.41;83.51;93412.62;1850080;75;21089;-77
2021/04/25 01:10:22;;;;;;;18.35;10.68;;;;;;;-1.42;83.45;93411.62;1841292;77;21054;-76
2021/04/25 01:12:50;;;;;;;21.13;10.80;;;;;;;-1.46;83.45;93410.14;1837204;78;21858;-77
2021/04/25 01:15:18;;;;;;;17.57;8.37;;;;;;;-1.48;83.59;93416.33;1829474;78;21565;-77
2021/04/25 01:17:47;;;;;;;15.60;7.73;;;;;;;-1.47;83.81;93413.89;1831452;78;21590;-76
2021/04/25 01:20:17;;;;;;;14.05;7.78;;;;;;;-1.47;84.12;93417.89;1813904;76;21142;-77
2021/04/25 01:22:45;;;;;;;18.40;9.13;;;;;;;-1.48;84.06;93416.33;1859576;76;21159;-77
2021/04/25 01:25:15;;;;;;;14.23;8.90;;;;;;;-1.51;83.93;93408.96;1840627;76;21163;-77
2021/04/25 01:27:44;;;;;;;19.17;10.77;;;;;;;-1.55;83.92;93400.81;1844908;77;21517;-74
2021/04/25 01:30:16;;;;;;;17.32;11.22;;;;;;;-1.59;83.89;93387.11;1825447;77;21052;-77
2021/04/25 01:32:43;;;;;;;18.50;10.93;;;;;;;-1.61;83.94;93388.00;1847565;76;21131;-77
2021/04/25 01:35:15;;;;;;;24.83;12.77;;;;;;;-1.63;84.03;93380.30;1819344;76;21106;-76
2021/04/25 01:37:53;;;;;;;19.43;9.03;;;;;;;-1.65;83.84;93383.85;1836577;75;21326;-77
2021/04/25 01:40:25;;;;;;;15.60;8.13;;;;;;;-1.67;83.89;93377.27;1838199;76;21116;-77
2021/04/25 01:42:59;;;;;;;16.40;8.63;;;;;;;-1.69;83.84;93371.45;1877472;76;21028;-77
2021/04/25 01:45:29;;;;;;;11.57;7.00;;;;;;;-1.76;84.05;93372.75;1861109;76;21534;-77
2021/04/25 01:48:02;;;;;;;12.87;7.47;;;;;;;-1.77;84.53;93362.38;1841364;77;21125;-77
2021/04/25 01:50:29;;;;;;;23.00;10.13;;;;;;;-1.78;84.81;93360.27;1849487;76;21179;-77
2021/04/25 01:52:58;;;;;;;17.80;9.70;;;;;;;-1.79;84.67;93369.94;1855084;76;21607;-77
2021/04/25 01:55:29;;;;;;;15.73;9.07;;;;;;;-1.80;84.64;93367.05;1825376;76;21118;-76
2021/04/25 01:57:56;;;;;;;12.93;7.43;;;;;;;-1.80;84.80;93367.83;1857338;76;21102;-77
2021/04/25 02:00:31;;;;;;;19.53;8.30;;;;;;;-1.74;85.02;93361.75;1852928;76;21463;-76
2021/04/25 02:02:58;;;;;;;12.93;7.00;;;;;;;-1.69;84.94;93360.79;1833335;76;22087;-76
2021/04/25 02:05:27;;;;;;;17.32;7.75;;;;;;;-1.68;84.52;93362.37;1857404;76;21043;-75
2021/04/25 02:07:54;;;;;;;15.37;7.90;;;;;;;-1.72;84.54;93355.02;1838103;77;21233;-75
2021/04/25 02:10:22;;;;;;;14.78;8.33;;;;;;;-1.68;84.59;93350.38;1819436;77;21016;-75
2021/04/25 02:12:50;;;;;;;11.07;6.67;;;;;;;-1.71;84.23;93343.23;1861900;76;21038;-75
2021/04/25 02:15:19;;;;;;;10.30;5.80;;;;;;;-1.69;84.19;93343.46;1871404;76;21234;-76
2021/04/25 02:17:48;;;;;;;7.80;5.07;;;;;;;-1.69;84.34;93342.94;1859135;76;21109;-75
2021/04/25 02:20:17;;;;;;;9.20;5.07;;;;;;;-1.71;84.42;93341.91;1879543;76;21125;-75
2021/04/25 02:22:44;;;;;;;12.37;6.33;;;;;;;-1.72;84.83;93344.34;1851502;76;21105;-75
2021/04/25 02:25:15;;;;;;;13.43;7.43;;;;;;;-1.70;85.04;93345.34;1870514;76;21054;-75
2021/04/25 02:27:43;;;;;;;13.13;5.70;;;;;;;-1.68;84.97;93341.05;1848996;76;21349;-76
2021/04/25 02:30:23;;;;;;;13.57;6.90;;;;;;;-1.62;84.97;93338.41;1833610;76;21062;-76
2021/04/25 02:32:50;;;;;;;10.53;6.43;;;;;;;-1.57;84.82;93338.25;1872946;76;21473;-73
2021/04/25 02:35:19;;;;;;;8.90;5.80;;;;;;;-1.53;84.91;93342.62;1820266;78;21111;-76
2021/04/25 02:37:47;;;;;;;13.23;7.77;;;;;;;-1.54;84.75;93336.28;1873703;76;21133;-76
2021/04/25 02:40:17;;;;;;;12.00;6.87;;;;;;;-1.52;84.75;93334.06;1858870;76;21349;-75
2021/04/25 02:42:45;;;;;;;15.77;6.83;;;;;;;-1.48;84.76;93338.42;1843873;77;21121;-75
2021/04/25 02:45:17;;;;;;;17.13;9.70;;;;;;;-1.42;84.76;93340.94;1836554;77;21071;-75
2021/04/25 02:47:48;;;;;;;14.23;7.43;;;;;;;-1.38;84.55;93336.52;1832453;78;21039;-76
2021/04/25 02:50:17;;;;;;;17.87;8.13;;;;;;;-1.37;84.31;93332.19;1827034;77;21164;-76
2021/04/25 02:52:44;;;;;;;11.22;6.30;;;;;;;-1.33;84.04;93330.98;1802625;78;21713;-76
2021/04/25 02:55:12;;;;;;;5.85;4.15;;;;;;;-1.35;84.06;93321.20;1848762;76;21500;-76
2021/04/25 02:57:40;;;;;;;6.97;4.23;;;;;;;-1.50;84.29;93327.31;1855260;76;21478;-76
2021/04/25 03:00:10;;;;;;;8.78;3.50;;;;;;;-1.65;84.63;93329.19;1828214;76;21750;-76
2021/04/25 03:02:38;;;;;;;8.20;5.10;;;;;;;-1.75;85.18;93332.98;1882406;75;21030;-74
2021/04/25 03:05:08;;;;;;;8.53;5.43;;;;;;;-1.80;85.74;93324.39;1851218;75;21657;-76
2021/04/25 03:07:35;;;;;;;7.63;4.47;;;;;;;-1.80;85.96;93323.84;1840662;77;21196;-76
2021/04/25 03:10:05;;;;;;;9.53;5.13;;;;;;;-1.73;86.20;93321.46;1856601;76;21461;-76
2021/04/25 03:12:32;;;;;;;8.60;4.53;;;;;;;-1.64;86.12;93321.41;1865266;76;21477;-76
2021/04/25 03:15:02;;;;;;;7.70;4.70;;;;;;;-1.56;86.17;93311.81;1846054;77;21116;-76
2021/04/25 03:17:29;;;;;;;8.87;4.80;;;;;;;-1.49;86.04;93320.09;1840926;78;21426;-76
2021/04/25 03:19:57;;;;;;;9.27;5.87;;;;;;;-1.47;85.93;93322.68;1836053;78;21125;-76
2021/04/25 03:22:25;;;;;;;9.73;4.97;;;;;;;-1.46;85.82;93319.45;1860312;76;21129;-77
2021/04/25 03:24:52;;;;;;;6.17;4.63;;;;;;;-1.43;85.64;93322.02;1862285;76;21509;-76
2021/04/25 03:27:20;;;;;;;9.03;5.37;;;;;;;-1.43;85.63;93319.34;1845269;77;21544;-76
2021/04/25 03:29:47;;;;;;;12.10;5.10;;;;;;;-1.40;85.63;93324.04;1841768;78;21364;-77
2021/04/25 03:32:14;;;;;;;10.57;4.27;;;;;;;-1.35;85.56;93315.87;1839276;75;21202;-75
2021/04/25 03:34:44;;;;;;;7.83;4.13;;;;;;;-1.28;85.61;93315.59;1864070;76;21038;-74
2021/04/25 03:37:12;;;;;;;5.33;4.53;;;;;;;-1.22;85.58;93317.51;1859453;76;21045;-76
2021/04/25 03:39:39;;;;;;;13.90;7.20;;;;;;;-1.18;85.38;93313.64;1854210;76;21066;-76
2021/04/25 03:42:06;;;;;;;9.63;4.97;;;;;;;-1.18;85.24;93317.64;1871887;76;21176;-76
2021/04/25 03:44:34;;;;;;;14.20;6.23;;;;;;;-1.15;84.83;93312.44;1846680;77;21062;-77
2021/04/25 03:47:01;;;;;;;10.63;6.25;;;;;;;-1.11;84.58;93312.02;1841688;77;21138;-75
2021/04/25 03:49:29;;;;;;;11.13;5.43;;;;;;;-1.08;84.34;93315.38;1837755;78;21102;-76
2021/04/25 03:51:56;;;;;;;6.77;3.90;;;;;;;-1.07;84.43;93307.59;1830088;78;21118;-75
2021/04/25 03:54:23;;;;;;;7.85;3.98;;;;;;;-1.06;84.57;93303.03;1828833;76;21229;-76
2021/04/25 03:56:52;;;;;;;6.97;3.90;;;;;;;-1.11;84.77;93301.34;1873581;76;21038;-76
2021/04/25 03:59:20;;;;;;;6.92;4.15;;;;;;;-1.15;85.15;93303.10;1850006;76;21102;-74
2021/04/25 04:01:48;;;;;;;5.90;4.70;;;;;;;-1.14;85.42;93303.88;1867849;75;21177;-76
2021/04/25 04:04:22;;;;;;;6.55;3.70;;;;;;;-1.12;85.56;93300.34;1860650;76;21152;-75
2021/04/25 04:06:50;;;;;;;11.03;6.17;;;;;;;-1.05;85.63;93307.28;1845108;77;21615;-76
2021/04/25 04:09:18;;;;;;;15.43;7.80;;;;;;;-1.02;85.37;93311.95;1840008;78;21154;-76
2021/04/25 04:11:45;;;;;;;8.60;4.45;;;;;;;-0.94;85.07;93311.66;1835144;77;21177;-75
2021/04/25 04:14:13;;;;;;;6.45;3.98;;;;;;;-0.88;84.91;93309.81;1868155;76;21058;-75
2021/04/25 04:16:40;;;;;;;5.85;3.98;;;;;;;-0.83;84.95;93307.50;1835071;76;21491;-75
2021/04/25 04:19:08;;;;;;;8.38;5.22;;;;;;;-0.84;84.86;93291.27;1834892;76;21173;-76
2021/04/25 04:21:37;;;;;;;8.68;4.28;;;;;;;-0.80;84.77;93300.17;1860972;76;21186;-75
2021/04/25 04:24:05;;;;;;;8.60;4.75;;;;;;;-0.75;84.68;93298.11;1810396;79;21178;-75
2021/04/25 04:26:32;;;;;;;8.98;5.60;;;;;;;-0.67;84.50;93297.03;1869518;76;21134;-75
2021/04/25 04:28:59;;;;;;;10.35;6.03;;;;;;;-0.58;84.25;93301.17;1829854;76;21130;-73
2021/04/25 04:31:27;;;;;;;13.68;6.95;;;;;;;-0.49;83.88;93299.75;1843146;76;21198;-75
2021/04/25 04:33:55;;;;;;;11.65;7.53;;;;;;;-0.40;82.99;93291.67;1856136;76;21190;-75
2021/04/25 04:36:23;;;;;;;7.47;4.70;;;;;;;-0.32;82.72;93292.92;1815181;76;21122;-74
2021/04/25 04:38:51;;;;;;;7.67;4.72;;;;;;;-0.26;82.66;93292.95;1873803;76;21017;-74
2021/04/25 04:41:18;;;;;;;8.63;4.65;;;;;;;-0.18;81.92;93287.84;1850936;76;21105;-74
2021/04/25 04:43:45;;;;;;;11.83;6.58;;;;;;;-0.10;82.12;93292.31;1863032;76;22277;-74
2021/04/25 04:46:14;;;;;;;15.03;8.78;;;;;;;0.01;81.54;93281.98;1849991;76;21051;-74
2021/04/25 04:48:41;;;;;;;8.73;4.95;;;;;;;0.10;81.16;93289.34;1821107;76;21222;-74
2021/04/25 04:51:08;;;;;;;11.83;7.70;;;;;;;0.13;80.64;93289.45;1873550;76;21560;-74
2021/04/25 04:53:36;;;;;;;6.67;4.25;;;;;;;0.25;80.00;93288.69;1848410;76;21543;-74
2021/04/25 04:56:04;;;;;;;5.17;4.42;;;;;;;0.34;80.19;93290.71;1842911;77;22045;-73
2021/04/25 04:58:31;;;;;;;8.23;4.72;;;;;;;0.44;80.40;93278.77;1841637;75;21086;-71
2021/04/25 05:00:59;;;;;;;5.85;4.22;;;;;;;0.52;79.05;93283.79;1845622;76;21509;-73
2021/04/25 05:03:26;;;;;;;8.03;5.20;;;;;;;0.60;79.23;93280.22;1872950;76;21528;-73
2021/04/25 05:05:54;;;;;;;8.50;4.78;;;;;;;0.68;79.18;93284.13;1846553;77;21034;-73
2021/04/25 05:08:23;;;;;;;7.55;5.60;;;;;;;0.72;76.69;93283.68;1841876;77;21634;-73
2021/04/25 05:10:50;;;;;;;12.33;7.03;;;;;;;0.75;76.73;93279.53;1859815;76;21069;-73
2021/04/25 05:13:18;;;;;;;10.98;6.92;;;;;;;0.74;76.66;93290.02;1864063;76;21082;-73
2021/04/25 05:15:45;;;;;;;10.55;7.08;;;;;;;0.67;76.63;93289.23;1845844;77;21611;-73
2021/04/25 05:18:13;;;;;;;12.93;6.92;;;;;;;0.58;76.52;93287.25;1841021;78;21477;-73
2021/04/25 05:20:42;;;;;;;9.75;6.67;;;;;;;0.47;76.05;93284.23;1835999;77;21169;-74
2021/04/25 05:23:09;;;;;;;9.80;6.17;;;;;;;0.41;76.30;93283.45;1825800;78;21118;-73
2021/04/25 05:25:36;;;;;;;12.80;7.70;;;;;;;0.38;76.40;93286.81;1846270;76;21098;-73
2021/04/25 05:28:04;;;;;;;11.40;6.70;;;;;;;0.37;76.78;93286.02;1862809;75;21100;-74
2021/04/25 05:30:33;;;;;;;10.68;6.28;;;;;;;0.37;76.76;93271.30;1811979;79;21131;-74
2021/04/25 05:33:00;;;;;;;10.82;5.45;;;;;;;0.43;77.36;93267.86;1805534;79;21648;-73
2021/04/25 05:35:28;;;;;;;13.48;6.35;;;;;;;0.51;76.45;93266.95;1859363;76;21113;-73
2021/04/25 05:37:55;;;;;;;8.83;5.58;;;;;;;0.61;75.97;93256.37;1839248;76;21169;-73
2021/04/25 05:40:22;;;;;;;8.30;5.42;;;;;;;0.71;75.82;93247.33;1831631;76;21077;-73
2021/04/25 05:42:50;;;;;;;7.47;4.92;;;;;;;0.82;76.55;93244.17;1870958;76;21019;-73
2021/04/25 05:45:20;;;;;;;8.35;4.70;;;;;;;0.95;75.42;93246.50;1846323;77;21318;-73
2021/04/25 05:47:54;;;;;;;6.80;4.40;;;;;;;1.08;75.85;93244.55;1870756;76;21094;-73
2021/04/25 05:50:23;;;;;;;8.35;4.42;;;;;;;1.27;75.57;93249.29;1829613;76;21063;-72
2021/04/25 05:52:50;;;;;;;7.37;4.87;;;;;;;1.48;73.54;93251.02;1842974;76;21022;-73
2021/04/25 05:55:18;;;;;;;8.10;4.95;;;;;;;;;;1868723;75;21056;-72
2021/04/25 05:57:45;;;;;;;6.33;4.78;;;;;;;1.69;71.88;93241.65;1848277;77;21225;-73
2021/04/25 06:00:22;;;;;;;8.58;5.20;;;;;;;1.79;71.45;93243.03;1840151;78;21200;-73
2021/04/25 06:02:50;;;;;;;10.18;6.17;;;;;;;1.89;70.66;93244.44;1869206;76;21058;-74
2021/04/25 06:05:17;;;;;;;13.13;7.65;;;;;;;1.97;71.43;93244.06;1855624;76;21181;-75
2021/04/25 06:07:47;;;;;;;12.07;7.30;;;;;;;2.00;71.08;93244.72;1856191;76;21154;-73
2021/04/25 06:10:14;;;;;;;13.38;7.53;;;;;;;2.07;72.57;93248.89;1866800;76;21629;-73
2021/04/25 06:12:41;;;;;;;11.00;7.08;;;;;;;2.19;70.90;93238.10;1845369;77;21087;-73
2021/04/25 06:15:09;;;;;;;11.33;7.28;;;;;;;2.33;70.75;93236.30;1840941;77;21161;-73
2021/04/25 06:17:36;;;;;;;14.90;6.60;;;;;;;2.44;70.22;93238.67;1836579;78;21129;-75
2021/04/25 06:20:07;;;;;;;11.68;6.95;;;;;;;2.55;70.01;93238.93;1827459;78;21178;-73
2021/04/25 06:22:34;;;;;;;12.05;6.83;;;;;;;2.63;69.78;93239.30;1837937;76;22215;-75
2021/04/25 06:25:02;;;;;;;10.15;6.22;;;;;;;2.70;69.06;93238.69;1874213;75;21294;-73
2021/04/25 06:27:29;;;;;;;11.03;6.37;;;;;;;2.76;69.24;93230.59;1847573;77;21469;-74
2021/04/25 06:29:57;;;;;;;11.70;5.67;;;;;;;2.82;68.62;93223.80;1869884;76;21102;-73
2021/04/25 06:32:24;;;;;;;10.18;6.92;;;;;;;2.85;66.99;93221.77;1856238;76;21121;-73
2021/04/25 06:34:51;;;;;;;10.45;6.67;;;;;;;2.85;66.48;93225.80;1843840;77;21863;-74
2021/04/25 06:37:19;;;;;;;11.88;5.90;;;;;;;2.83;66.84;93220.01;1840142;78;21233;-74
2021/04/25 06:39:46;;;;;;;11.40;6.05;;;;;;;2.85;66.18;93216.39;1835776;77;21105;-73
2021/04/25 06:42:14;;;;;;;12.53;6.45;;;;;;;2.88;66.36;93215.70;1821945;78;21099;-74
2021/04/25 06:44:42;;;;;;;11.45;7.67;;;;;;;2.92;67.14;93213.30;1801035;78;21044;-75
2021/04/25 06:47:09;;;;;;;13.85;6.85;;;;;;;3.00;67.40;93212.88;1831808;76;21176;-74
2021/04/25 06:49:36;;;;;;;12.50;7.58;;;;;;;3.10;67.27;93212.33;1866231;76;21544;-74
2021/04/25 06:52:04;;;;;;;14.50;8.83;;;;;;;3.21;67.31;93212.55;1847324;77;21061;-71
2021/04/25 06:54:32;;;;;;;12.70;8.00;;;;;;;3.37;67.66;93207.09;1844206;75;21015;-75
2021/04/25 06:57:00;;;;;;;16.40;9.53;;;;;;;3.67;68.53;93210.54;1836666;78;21469;-74
2021/04/25 06:59:27;;;;;;;18.98;10.28;;;;;;;3.97;65.42;93209.34;1827465;78;21556;-73
2021/04/25 07:01:54;;;;;;;15.63;9.23;;;;;;;4.05;64.19;93209.67;1812327;78;21064;-74
2021/04/25 07:04:21;;;;;;;13.38;7.80;;;;;;;4.09;63.76;93211.28;1802594;76;21139;-74
2021/04/25 07:06:49;;;;;;;14.20;8.20;;;;;;;4.24;60.31;93211.53;1873496;76;21671;-74
2021/04/25 07:09:16;;;;;;;14.07;7.70;;;;;;;4.45;62.54;93211.11;1816925;76;21079;-74
2021/04/25 07:11:44;;;;;;;11.60;7.03;;;;;;;4.79;63.53;93210.08;1853341;76;21379;-73
2021/04/25 07:14:11;;;;;;;8.10;5.62;;;;;;;5.27;61.31;93203.59;1861671;76;21140;-74
2021/04/25 07:16:38;;;;;;;7.15;4.30;;;;;;;5.77;55.51;93208.78;1845404;77;21078;-75
2021/04/25 07:19:06;;;;;;;6.50;4.60;;;;;;;6.28;53.91;93202.19;1840155;78;21579;-74
2021/04/25 07:21:33;;;;;;;6.40;4.40;;;;;;;6.80;49.27;93199.47;1874898;76;21149;-70
2021/04/25 07:24:01;;;;;;;4.37;3.50;;;;;;;7.16;46.57;93196.99;1802007;78;21509;-74
2021/04/25 07:26:30;;;;;;;5.58;3.33;;;;;;;7.52;47.76;93204.68;1843969;76;21165;-74
2021/04/25 07:28:58;;;;;;;6.12;3.83;;;;;;;7.92;49.83;93209.66;1852575;76;21142;-74
2021/04/25 07:31:28;;;;;;;5.87;3.90;;;;;;;8.40;46.05;93203.39;1815913;76;21615;-74
2021/04/25 07:33:56;;;;;;;5.85;3.83;;;;;;;8.72;43.23;93204.73;1873607;76;21094;-73
2021/04/25 07:36:24;;;;;;;7.05;3.87;;;;;;;8.85;44.53;93204.36;1849372;76;21516;-74
2021/04/25 07:38:51;;;;;;;4.95;3.40;;;;;;;8.96;45.26;93193.69;1842910;77;21074;-74
2021/04/25 07:41:18;;;;;;;6.92;4.42;;;;;;;8.98;42.15;93195.41;1838724;78;21094;-74
2021/04/25 07:43:45;;;;;;;6.03;3.33;;;;;;;9.06;44.18;93199.47;1832800;77;21055;-74
2021/04/25 07:46:15;;;;;;;7.97;3.77;;;;;;;9.29;43.33;93197.12;1821516;78;21067;-74
2021/04/25 07:48:43;;;;;;;6.92;3.40;;;;;;;9.51;41.85;93200.52;1782010;77;21603;-74
2021/04/25 07:51:10;;;;;;;4.03;3.08;;;;;;;9.65;40.67;93195.63;1821708;78;21020;-73
2021/04/25 07:53:38;;;;;;;4.10;3.47;;;;;;;9.81;42.31;93196.52;1827974;77;21115;-74
2021/04/25 07:56:06;;;;;;;3.45;3.10;;;;;;;9.98;41.05;93190.23;1814727;77;21103;-74
2021/04/25 07:58:35;;;;;;;6.10;3.12;;;;;;;10.10;40.37;93190.36;1833991;78;21133;-75
2021/04/25 08:01:02;;;;;;;4.17;3.12;;;;;;;10.12;39.30;93192.11;1836702;78;21355;-75
2021/04/25 08:03:29;;;;;;;5.58;3.20;;;;;;;10.02;39.61;93185.56;1818384;78;21194;-75
2021/04/25 08:05:57;;;;;;;5.37;3.20;;;;;;;10.01;39.23;93184.61;1813799;78;21525;-74
2021/04/25 08:08:24;;;;;;;4.62;3.00;;;;;;;10.15;41.69;93182.55;1823637;78;21070;-75
2021/04/25 08:10:51;;;;;;;6.30;3.55;;;;;;;10.38;40.25;93184.79;1839426;77;21074;-75
2021/04/25 08:13:18;;;;;;;7.92;4.00;;;;;;;10.48;39.82;93178.30;1834678;78;21359;-75
2021/04/25 08:15:46;;;;;;;5.30;3.52;;;;;;;10.54;38.02;93182.16;1839851;77;21549;-74
2021/04/25 08:18:14;;;;;;;4.75;3.17;;;;;;;10.56;37.39;93178.43;1864260;76;21039;-75
2021/04/25 08:20:42;;;;;;;5.37;3.25;;;;;;;10.63;39.66;93187.30;1856522;76;21050;-75
2021/04/25 08:23:09;;;;;;;4.37;2.62;;;;;;;10.75;39.93;93175.75;1819316;78;21456;-75
2021/04/25 08:25:36;;;;;;;5.25;3.40;;;;;;;10.69;39.77;93177.55;1780472;78;21175;-75
2021/04/25 08:28:04;;;;;;;5.15;2.60;;;;;;;10.63;40.06;93170.22;1839773;78;21139;-75
2021/04/25 08:30:34;;;;;;;5.60;3.12;;;;;;;10.73;41.15;93164.52;1867189;76;21113;-75
2021/04/25 08:33:01;;;;;;;7.08;3.55;;;;;;;10.89;39.02;93170.20;1814152;76;21061;-74
2021/04/25 08:35:28;;;;;;;7.40;3.62;;;;;;;10.86;39.81;93175.08;1786655;79;21099;-75
2021/04/25 08:37:56;;;;;;;4.22;3.08;;;;;;;10.88;39.71;93176.23;1802094;78;21776;-74
2021/04/25 08:40:23;;;;;;;7.10;3.90;;;;;;;10.69;38.43;93172.70;1810871;78;21058;-74
2021/04/25 08:42:52;;;;;;;9.25;4.05;;;;;;;10.34;39.00;93179.17;1869517;75;21494;-76
2021/04/25 08:45:19;;;;;;;6.20;3.77;;;;;;;9.97;38.92;93178.61;1850797;76;21528;-75
2021/04/25 08:47:55;;;;;;;5.65;3.22;;;;;;;9.73;41.08;93166.69;1839919;77;21110;-73
2021/04/25 08:50:23;;;;;;;4.25;3.00;;;;;;;9.87;42.10;93154.98;1838135;77;21367;-76
2021/04/25 08:52:51;;;;;;;2.95;2.65;;;;;;;10.24;40.81;93141.96;1820073;78;21103;-75
2021/04/25 08:55:18;;;;;;;6.35;3.20;;;;;;;10.50;40.51;93133.84;1901940;75;21089;-76
2021/04/25 08:57:47;;;;;;;5.85;3.42;;;;;;;10.72;39.83;93131.68;1848958;74;21133;-75
2021/04/25 09:00:15;;;;;;;4.50;3.65;;;;;;;10.96;39.88;93137.48;1844313;75;21022;-76
2021/04/25 09:02:43;;;;;;;3.87;3.27;;;;;;;11.17;40.18;93130.47;1892270;74;21842;-76
2021/04/25 09:05:12;;;;;;;3.47;2.87;;;;;;;11.29;38.44;93131.89;1868636;75;21489;-76
2021/04/25 09:07:43;;;;;;;7.78;3.55;;;;;;;11.24;35.26;93122.03;1857957;77;21446;-75
2021/04/25 09:10:11;;;;;;;4.78;2.87;;;;;;;10.97;34.92;93113.17;1907715;74;21172;-76
2021/04/25 09:12:44;;;;;;;7.08;2.90;;;;;;;10.82;36.10;93111.78;1861807;76;21136;-75
2021/04/25 09:15:18;;;;;;;5.00;3.00;;;;;;;10.73;37.35;93109.54;1830929;77;21776;-74
2021/04/25 09:17:56;;;;;;;5.62;2.65;;;;;;;10.68;36.00;93103.16;1842992;74;21073;-75
2021/04/25 09:20:56;;;;;;;4.17;2.80;;;;;;;10.65;37.58;93101.27;1877359;75;21149;-75
2021/04/25 09:23:29;;;;;;;5.70;2.80;;;;;;;10.83;38.47;93101.88;1778005;80;21657;-76
2021/04/25 09:26:04;;;;;;;6.40;3.00;;;;;;;10.96;37.04;93101.35;1793962;79;21104;-75
2021/04/25 09:28:34;;;;;;;5.70;3.20;;;;;;;11.02;36.16;93090.19;1775617;79;21337;-74
2021/04/25 09:31:11;;;;;;;5.08;3.20;;;;;;;11.03;37.85;93100.69;1780043;79;21154;-75
2021/04/25 09:33:57;;;;;;;5.83;2.65;;;;;;;11.09;37.92;93084.08;1791650;79;21121;-75
2021/04/25 09:36:27;;;;;;;;;;;;;;;11.18;38.09;93092.55;1783317;78;21060;-76
2021/04/25 09:39:13;;;;;;;7.28;2.95;;;;;;;11.17;35.19;93076.05;1838202;78;20477;-75
2021/04/25 09:41:40;;;;;;;5.15;3.10;;;;;;;10.90;34.88;93071.85;1749161;82;21245;-75
2021/04/25 09:44:08;;;;;;;4.62;2.77;;;;;;;10.63;36.38;93069.62;1781649;80;21185;-76
2021/04/25 09:46:56;;;;;;;3.67;3.17;;;;;;;10.66;37.11;93074.25;1798619;75;21100;-74
2021/04/25 09:49:42;;;;;;;4.60;2.95;;;;;;;10.74;38.02;93066.20;1801864;78;21100;-75
2021/04/25 09:52:14;;;;;;;5.47;2.92;;;;;;;10.91;37.34;93059.81;1851473;76;21153;-75
2021/04/25 09:54:42;;;;;;;5.37;3.00;;;;;;;11.07;37.21;93055.76;1806628;79;22307;-76
2021/04/25 09:57:09;;;;;;;3.33;2.55;;;;;;;11.19;35.81;93051.13;1765413;79;21090;-76
2021/04/25 09:59:52;;;;;;;4.12;3.33;;;;;;;11.10;35.11;93040.75;1729256;80;21148;-75
2021/04/25 10:02:20;;;;;;;5.30;2.50;;;;;;;10.92;34.08;93035.51;1785793;80;21142;-76
2021/04/25 10:04:47;;;;;;;4.72;3.22;;;;;;;10.76;36.78;93036.67;1799504;79;21168;-76
2021/04/25 10:07:14;;;;;;;2.65;2.17;;;;;;;10.79;34.90;93039.91;1816521;78;21793;-76
2021/04/25 10:09:43;;;;;;;6.10;2.60;;;;;;;10.81;36.30;93021.26;1825297;78;37620;-75
2021/04/25 10:12:10;;;;;;;7.03;3.15;;;;;;;10.91;37.30;93029.89;1788376;78;21097;-75
2021/04/25 10:14:38;;;;;;;3.92;2.85;;;;;;;11.08;36.15;93035.52;1815669;75;21080;-75
2021/04/25 10:17:07;;;;;;;5.08;3.42;;;;;;;11.09;35.46;93044.63;1774803;78;21076;-75
2021/04/25 10:19:34;;;;;;;5.62;2.72;;;;;;;10.97;35.12;93030.80;1809736;78;22489;-76
2021/04/25 10:22:03;;;;;;;6.65;2.60;;;;;;;10.86;35.62;93020.03;1816704;77;21511;-76
2021/04/25 10:24:30;;;;;;;5.00;2.70;;;;;;;10.78;36.56;93034.30;1780264;77;21227;-75
2021/04/25 10:27:10;;;;;;;4.87;3.22;;;;;;;10.69;35.99;93025.86;1814257;78;21625;-75
2021/04/25 10:29:53;;;;;;;4.00;2.62;;;;;;;10.63;36.28;93022.80;1727769;82;21077;-74
2021/04/25 10:32:21;;;;;;;3.70;2.83;;;;;;;10.66;36.72;93022.00;1839307;76;21649;-75
2021/04/25 10:34:51;;;;;;;5.58;3.08;;;;;;;10.72;36.33;93027.78;1806295;78;21174;-75
2021/04/25 10:37:18;;;;;;;5.72;2.62;;;;;;;10.72;34.54;93021.55;1785695;78;21135;-75
2021/04/25 10:39:55;;;;;;;4.90;3.22;;;;;;;10.60;35.47;93024.20;1815191;78;21076;-75
2021/04/25 10:42:31;;;;;;;6.58;2.70;;;;;;;10.56;36.00;93016.08;1805060;78;21096;-74
2021/04/25 10:45:05;;;;;;;3.08;2.77;;;;;;;10.57;36.47;93013.56;1842821;78;21778;-72
2021/04/25 10:47:38;;;;;;;2.58;2.37;;;;;;;10.58;36.33;93012.97;1768449;77;21735;-76
2021/04/25 10:50:17;;;;;;;3.10;2.77;;;;;;;10.62;37.08;93017.19;1780300;80;21064;-75
2021/04/25 10:52:47;;;;;;;4.85;2.52;;;;;;;10.64;34.94;93013.49;1780379;79;21033;-76
2021/04/25 10:55:28;;;;;;;5.65;2.87;;;;;;;10.65;37.13;93010.95;1793758;79;21032;-76
2021/04/25 10:58:08;;;;;;;4.22;3.27;;;;;;;10.73;37.35;93013.59;1833059;77;21962;-75
2021/04/25 11:00:38;;;;;;;5.55;3.05;;;;;;;10.79;36.90;93014.67;1755176;79;21079;-77
2021/04/25 11:03:15;;;;;;;4.65;2.92;;;;;;;10.75;37.10;93025.59;1812753;79;21096;-75
2021/04/25 11:05:47;;;;;;;5.35;3.62;;;;;;;10.63;36.75;93022.03;1786043;78;21166;-75
2021/04/25 11:08:32;;;;;;;7.05;3.70;;;;;;;10.48;36.24;93016.56;1757225;79;21111;-76
2021/04/25 11:11:10;;;;;;;4.35;3.52;;;;;;;10.38;37.00;93023.07;1793215;79;21368;-76
2021/04/25 11:13:49;;;;;;;8.58;3.87;;;;;;;10.39;37.70;93031.99;1818281;77;21041;-74
2021/04/25 11:16:37;;;;;;;6.22;3.40;;;;;;;10.38;37.19;93024.99;1780156;80;21646;-75
2021/04/25 11:19:10;;;;;;;6.70;3.83;;;;;;;10.32;37.02;93024.67;1798214;79;21156;-75
2021/04/25 11:21:46;;;;;;;5.47;3.08;;;;;;;10.24;38.08;93015.61;1894605;74;21044;-75
2021/04/25 11:24:19;;;;;;;6.83;3.62;;;;;;;10.26;38.21;93018.70;1845539;76;21693;-74
2021/04/25 11:26:52;;;;;;;6.28;3.02;;;;;;;10.30;38.47;93022.16;1807071;77;21057;-75
2021/04/25 11:29:30;;;;;;;6.20;3.27;;;;;;;10.33;37.23;93015.34;1816008;77;21054;-75
2021/04/25 11:31:59;;;;;;;6.20;3.47;;;;;;;10.34;37.82;93006.03;1830218;76;21448;-77
2021/04/25 11:34:34;;;;;;;5.28;2.67;;;;;;;10.38;38.30;93009.48;1848050;77;21609;-76
2021/04/25 11:37:19;;;;;;;5.95;3.25;;;;;;;10.41;38.63;93011.96;1808990;79;21983;-74
2021/04/25 11:39:55;;;;;;;4.75;3.60;;;;;;;10.44;38.00;93009.80;1874190;76;20988;-72
2021/04/25 11:42:47;;;;;;;5.55;3.35;;;;;;;10.45;38.30;93007.26;1852817;76;21524;-75
2021/04/25 11:45:25;;;;;;;5.50;3.10;;;;;;;10.55;37.85;93000.19;1865274;76;21150;-76